sensor_id;sensor_type;location;lat;lon;timestamp;P1;durP1;ratioP1;P2;durP2;ratioP2
46755;SDS011;32506;52.826;-1.192;2023-09-07T00:00:35;5.20;;;3.70;;
46755;SDS011;32506;52.826;-1.192;2023-09-07T00:03:01;6.15;;;4.07;;
46755;SDS011;32506;52.826;-1.192;2023-09-07T00:05:26;4.90;;;3.50;;
46755;SDS011;32506;52.826;-1.192;2023-09-07T00:07:52;5.45;;;3.33;;
46755;SDS011;32506;52.826;-1.192;2023-09-07T00:10:17;4.28;;;3.33;;
46755;SDS011;32506;52.826;-1.192;2023-09-07T00:12:43;5.07;;;3.47;;
46755;SDS011;32506;52.826;-1.192;2023-09-07T00:15:09;3.97;;;3.05;;
46755;SDS011;32506;52.826;-1.192;2023-09-07T00:17:35;4.82;;;3.25;;
46755;SDS011;32506;52.826;-1.192;2023-09-07T00:20:01;5.35;;;3.67;;
46755;SDS011;32506;52.826;-1.192;2023-09-07T00:22:35;5.95;;;3.75;;
46755;SDS011;32506;52.826;-1.192;2023-09-07T00:25:00;4.93;;;3.40;;
46755;SDS011;32506;52.826;-1.192;2023-09-07T00:27:26;4.93;;;3.35;;
46755;SDS011;32506;52.826;-1.192;2023-09-07T00:29:51;5.18;;;3.22;;
46755;SDS011;32506;52.826;-1.192;2023-09-07T00:32:17;5.00;;;3.15;;
46755;SDS011;32506;52.826;-1.192;2023-09-07T00:34:42;9.00;;;3.65;;
46755;SDS011;32506;52.826;-1.192;2023-09-07T00:37:08;6.13;;;3.10;;
46755;SDS011;32506;52.826;-1.192;2023-09-07T00:39:33;4.40;;;3.25;;
46755;SDS011;32506;52.826;-1.192;2023-09-07T00:41:59;5.20;;;3.60;;
46755;SDS011;32506;52.826;-1.192;2023-09-07T00:44:24;5.15;;;3.20;;
46755;SDS011;32506;52.826;-1.192;2023-09-07T00:46:49;4.47;;;2.63;;
46755;SDS011;32506;52.826;-1.192;2023-09-07T00:49:15;4.32;;;3.08;;
46755;SDS011;32506;52.826;-1.192;2023-09-07T00:51:41;5.80;;;2.97;;
46755;SDS011;32506;52.826;-1.192;2023-09-07T00:54:06;4.75;;;2.88;;
46755;SDS011;32506;52.826;-1.192;2023-09-07T00:56:32;3.60;;;2.80;;
46755;SDS011;32506;52.826;-1.192;2023-09-07T00:58:58;6.20;;;2.70;;
46755;SDS011;32506;52.826;-1.192;2023-09-07T01:01:25;4.63;;;3.25;;
46755;SDS011;32506;52.826;-1.192;2023-09-07T01:03:51;4.53;;;3.30;;
46755;SDS011;32506;52.826;-1.192;2023-09-07T01:06:22;4.60;;;3.20;;
46755;SDS011;32506;52.826;-1.192;2023-09-07T01:09:14;4.22;;;2.88;;
46755;SDS011;32506;52.826;-1.192;2023-09-07T01:11:42;4.38;;;2.88;;
46755;SDS011;32506;52.826;-1.192;2023-09-07T01:14:08;4.53;;;3.33;;
46755;SDS011;32506;52.826;-1.192;2023-09-07T01:16:35;4.28;;;2.80;;
46755;SDS011;32506;52.826;-1.192;2023-09-07T01:19:03;3.80;;;2.95;;
46755;SDS011;32506;52.826;-1.192;2023-09-07T01:21:34;4.00;;;2.95;;
46755;SDS011;32506;52.826;-1.192;2023-09-07T01:24:01;3.92;;;2.58;;
46755;SDS011;32506;52.826;-1.192;2023-09-07T01:26:29;4.40;;;2.58;;
46755;SDS011;32506;52.826;-1.192;2023-09-07T01:28:55;3.50;;;2.58;;
46755;SDS011;32506;52.826;-1.192;2023-09-07T01:31:21;4.90;;;2.85;;
46755;SDS011;32506;52.826;-1.192;2023-09-07T01:33:49;5.30;;;2.75;;
46755;SDS011;32506;52.826;-1.192;2023-09-07T01:36:15;4.55;;;2.85;;
46755;SDS011;32506;52.826;-1.192;2023-09-07T01:38:40;5.78;;;2.90;;
46755;SDS011;32506;52.826;-1.192;2023-09-07T01:41:05;6.13;;;2.80;;
46755;SDS011;32506;52.826;-1.192;2023-09-07T01:43:31;4.20;;;2.80;;
46755;SDS011;32506;52.826;-1.192;2023-09-07T01:45:56;5.07;;;3.45;;
46755;SDS011;32506;52.826;-1.192;2023-09-07T01:48:22;3.75;;;2.53;;
46755;SDS011;32506;52.826;-1.192;2023-09-07T01:50:51;4.80;;;2.80;;
46755;SDS011;32506;52.826;-1.192;2023-09-07T01:53:18;5.68;;;3.20;;
46755;SDS011;32506;52.826;-1.192;2023-09-07T01:55:43;5.03;;;2.92;;
46755;SDS011;32506;52.826;-1.192;2023-09-07T01:58:09;4.22;;;3.08;;
46755;SDS011;32506;52.826;-1.192;2023-09-07T02:00:37;4.30;;;2.70;;
46755;SDS011;32506;52.826;-1.192;2023-09-07T02:03:06;5.70;;;2.90;;
46755;SDS011;32506;52.826;-1.192;2023-09-07T02:05:32;3.92;;;2.47;;
46755;SDS011;32506;52.826;-1.192;2023-09-07T02:07:57;4.95;;;2.70;;
46755;SDS011;32506;52.826;-1.192;2023-09-07T02:10:23;3.20;;;2.47;;
46755;SDS011;32506;52.826;-1.192;2023-09-07T02:12:49;4.05;;;2.63;;
46755;SDS011;32506;52.826;-1.192;2023-09-07T02:15:14;5.10;;;2.97;;
46755;SDS011;32506;52.826;-1.192;2023-09-07T02:17:40;4.03;;;2.25;;
46755;SDS011;32506;52.826;-1.192;2023-09-07T02:20:10;4.22;;;2.65;;
46755;SDS011;32506;52.826;-1.192;2023-09-07T02:22:37;3.55;;;2.50;;
46755;SDS011;32506;52.826;-1.192;2023-09-07T02:25:03;3.72;;;2.55;;
46755;SDS011;32506;52.826;-1.192;2023-09-07T02:27:30;4.25;;;2.97;;
46755;SDS011;32506;52.826;-1.192;2023-09-07T02:29:59;5.40;;;2.75;;
46755;SDS011;32506;52.826;-1.192;2023-09-07T02:32:24;3.67;;;2.50;;
46755;SDS011;32506;52.826;-1.192;2023-09-07T02:34:50;5.93;;;2.63;;
46755;SDS011;32506;52.826;-1.192;2023-09-07T02:37:15;4.03;;;2.75;;
46755;SDS011;32506;52.826;-1.192;2023-09-07T02:39:41;5.35;;;3.28;;
46755;SDS011;32506;52.826;-1.192;2023-09-07T02:42:07;4.35;;;2.63;;
46755;SDS011;32506;52.826;-1.192;2023-09-07T02:44:32;4.32;;;2.17;;
46755;SDS011;32506;52.826;-1.192;2023-09-07T02:46:58;3.60;;;2.50;;
46755;SDS011;32506;52.826;-1.192;2023-09-07T02:49:23;4.03;;;2.55;;
46755;SDS011;32506;52.826;-1.192;2023-09-07T02:51:49;3.70;;;2.47;;
46755;SDS011;32506;52.826;-1.192;2023-09-07T02:54:14;3.38;;;2.28;;
46755;SDS011;32506;52.826;-1.192;2023-09-07T02:56:39;3.90;;;2.53;;
46755;SDS011;32506;52.826;-1.192;2023-09-07T02:59:05;4.28;;;2.67;;
46755;SDS011;32506;52.826;-1.192;2023-09-07T03:01:30;3.75;;;2.65;;
46755;SDS011;32506;52.826;-1.192;2023-09-07T03:03:56;3.67;;;2.78;;
46755;SDS011;32506;52.826;-1.192;2023-09-07T03:06:21;4.70;;;2.80;;
46755;SDS011;32506;52.826;-1.192;2023-09-07T03:08:47;4.30;;;2.60;;
46755;SDS011;32506;52.826;-1.192;2023-09-07T03:11:12;5.20;;;2.38;;
46755;SDS011;32506;52.826;-1.192;2023-09-07T03:13:38;4.00;;;2.72;;
46755;SDS011;32506;52.826;-1.192;2023-09-07T03:16:05;4.28;;;2.60;;
46755;SDS011;32506;52.826;-1.192;2023-09-07T03:18:31;3.35;;;2.45;;
46755;SDS011;32506;52.826;-1.192;2023-09-07T03:20:58;5.90;;;2.92;;
46755;SDS011;32506;52.826;-1.192;2023-09-07T03:23:24;3.63;;;2.35;;
46755;SDS011;32506;52.826;-1.192;2023-09-07T03:25:50;3.75;;;2.40;;
46755;SDS011;32506;52.826;-1.192;2023-09-07T03:28:16;3.25;;;2.17;;
46755;SDS011;32506;52.826;-1.192;2023-09-07T03:30:41;3.63;;;2.70;;
46755;SDS011;32506;52.826;-1.192;2023-09-07T03:33:06;4.05;;;2.72;;
46755;SDS011;32506;52.826;-1.192;2023-09-07T03:35:32;5.55;;;2.53;;
46755;SDS011;32506;52.826;-1.192;2023-09-07T03:37:58;3.92;;;2.60;;
46755;SDS011;32506;52.826;-1.192;2023-09-07T03:40:23;6.10;;;3.13;;
46755;SDS011;32506;52.826;-1.192;2023-09-07T03:42:49;4.50;;;3.10;;
46755;SDS011;32506;52.826;-1.192;2023-09-07T03:45:15;3.72;;;2.72;;
46755;SDS011;32506;52.826;-1.192;2023-09-07T03:47:40;4.05;;;3.03;;
46755;SDS011;32506;52.826;-1.192;2023-09-07T03:50:06;5.03;;;2.85;;
46755;SDS011;32506;52.826;-1.192;2023-09-07T03:52:32;4.95;;;3.13;;
46755;SDS011;32506;52.826;-1.192;2023-09-07T03:54:59;3.97;;;3.00;;
46755;SDS011;32506;52.826;-1.192;2023-09-07T03:57:26;3.92;;;2.65;;
46755;SDS011;32506;52.826;-1.192;2023-09-07T03:59:52;6.25;;;2.83;;
46755;SDS011;32506;52.826;-1.192;2023-09-07T04:02:20;3.78;;;2.60;;
46755;SDS011;32506;52.826;-1.192;2023-09-07T04:04:49;3.25;;;2.45;;
46755;SDS011;32506;52.826;-1.192;2023-09-07T04:07:15;4.15;;;2.70;;
46755;SDS011;32506;52.826;-1.192;2023-09-07T04:09:41;3.78;;;2.53;;
46755;SDS011;32506;52.826;-1.192;2023-09-07T04:12:08;3.83;;;2.50;;
46755;SDS011;32506;52.826;-1.192;2023-09-07T04:14:34;3.13;;;2.30;;
46755;SDS011;32506;52.826;-1.192;2023-09-07T04:17:00;3.55;;;2.70;;
46755;SDS011;32506;52.826;-1.192;2023-09-07T04:19:25;5.10;;;2.85;;
46755;SDS011;32506;52.826;-1.192;2023-09-07T04:21:51;4.50;;;2.78;;
46755;SDS011;32506;52.826;-1.192;2023-09-07T04:24:16;3.00;;;2.40;;
46755;SDS011;32506;52.826;-1.192;2023-09-07T04:26:42;3.30;;;2.22;;
46755;SDS011;32506;52.826;-1.192;2023-09-07T04:29:07;3.50;;;2.58;;
46755;SDS011;32506;52.826;-1.192;2023-09-07T04:31:33;3.35;;;2.60;;
46755;SDS011;32506;52.826;-1.192;2023-09-07T04:33:58;3.50;;;2.17;;
46755;SDS011;32506;52.826;-1.192;2023-09-07T04:36:25;5.00;;;2.55;;
46755;SDS011;32506;52.826;-1.192;2023-09-07T04:38:50;3.50;;;2.47;;
46755;SDS011;32506;52.826;-1.192;2023-09-07T04:41:15;4.13;;;2.45;;
46755;SDS011;32506;52.826;-1.192;2023-09-07T04:43:41;4.38;;;2.55;;
46755;SDS011;32506;52.826;-1.192;2023-09-07T04:46:10;4.55;;;2.72;;
46755;SDS011;32506;52.826;-1.192;2023-09-07T04:48:36;4.75;;;3.03;;
46755;SDS011;32506;52.826;-1.192;2023-09-07T04:51:03;3.78;;;2.60;;
46755;SDS011;32506;52.826;-1.192;2023-09-07T04:53:30;4.60;;;2.65;;
46755;SDS011;32506;52.826;-1.192;2023-09-07T04:55:57;4.50;;;2.58;;
46755;SDS011;32506;52.826;-1.192;2023-09-07T04:58:23;5.85;;;2.67;;
46755;SDS011;32506;52.826;-1.192;2023-09-07T05:00:49;5.68;;;2.88;;
46755;SDS011;32506;52.826;-1.192;2023-09-07T05:03:14;4.43;;;2.80;;
46755;SDS011;32506;52.826;-1.192;2023-09-07T05:05:41;3.78;;;2.67;;
46755;SDS011;32506;52.826;-1.192;2023-09-07T05:08:06;4.35;;;2.92;;
46755;SDS011;32506;52.826;-1.192;2023-09-07T05:10:35;4.20;;;3.22;;
46755;SDS011;32506;52.826;-1.192;2023-09-07T05:13:00;6.10;;;3.20;;
46755;SDS011;32506;52.826;-1.192;2023-09-07T05:15:26;5.97;;;3.47;;
46755;SDS011;32506;52.826;-1.192;2023-09-07T05:17:52;4.15;;;2.88;;
46755;SDS011;32506;52.826;-1.192;2023-09-07T05:20:18;4.20;;;2.72;;
46755;SDS011;32506;52.826;-1.192;2023-09-07T05:22:43;5.70;;;3.30;;
46755;SDS011;32506;52.826;-1.192;2023-09-07T05:25:09;4.60;;;3.10;;
46755;SDS011;32506;52.826;-1.192;2023-09-07T05:27:35;4.47;;;2.80;;
46755;SDS011;32506;52.826;-1.192;2023-09-07T05:30:01;6.85;;;3.25;;
46755;SDS011;32506;52.826;-1.192;2023-09-07T05:32:29;4.93;;;3.20;;
46755;SDS011;32506;52.826;-1.192;2023-09-07T05:34:55;5.45;;;2.75;;
46755;SDS011;32506;52.826;-1.192;2023-09-07T05:37:20;5.75;;;3.08;;
46755;SDS011;32506;52.826;-1.192;2023-09-07T05:39:46;6.50;;;3.00;;
46755;SDS011;32506;52.826;-1.192;2023-09-07T05:42:11;5.65;;;3.20;;
46755;SDS011;32506;52.826;-1.192;2023-09-07T05:44:37;4.68;;;2.67;;
46755;SDS011;32506;52.826;-1.192;2023-09-07T05:47:03;4.55;;;2.72;;
46755;SDS011;32506;52.826;-1.192;2023-09-07T05:49:29;7.00;;;2.88;;
46755;SDS011;32506;52.826;-1.192;2023-09-07T05:51:54;4.65;;;2.95;;
46755;SDS011;32506;52.826;-1.192;2023-09-07T05:54:20;5.05;;;2.95;;
46755;SDS011;32506;52.826;-1.192;2023-09-07T05:56:45;3.88;;;2.70;;
46755;SDS011;32506;52.826;-1.192;2023-09-07T05:59:11;5.32;;;3.00;;
46755;SDS011;32506;52.826;-1.192;2023-09-07T06:01:36;4.85;;;2.97;;
46755;SDS011;32506;52.826;-1.192;2023-09-07T06:04:03;5.78;;;3.05;;
46755;SDS011;32506;52.826;-1.192;2023-09-07T06:06:29;4.20;;;2.92;;
46755;SDS011;32506;52.826;-1.192;2023-09-07T06:08:54;5.35;;;2.92;;
46755;SDS011;32506;52.826;-1.192;2023-09-07T06:11:20;5.22;;;3.03;;
46755;SDS011;32506;52.826;-1.192;2023-09-07T06:13:45;5.28;;;3.30;;
46755;SDS011;32506;52.826;-1.192;2023-09-07T06:16:12;5.22;;;3.08;;
46755;SDS011;32506;52.826;-1.192;2023-09-07T06:18:37;4.38;;;3.10;;
46755;SDS011;32506;52.826;-1.192;2023-09-07T06:21:03;5.55;;;3.13;;
46755;SDS011;32506;52.826;-1.192;2023-09-07T06:23:30;5.28;;;3.30;;
46755;SDS011;32506;52.826;-1.192;2023-09-07T06:25:56;6.70;;;3.53;;
46755;SDS011;32506;52.826;-1.192;2023-09-07T06:28:22;6.55;;;3.90;;
46755;SDS011;32506;52.826;-1.192;2023-09-07T06:30:47;5.45;;;3.30;;
46755;SDS011;32506;52.826;-1.192;2023-09-07T06:33:12;4.30;;;2.60;;
46755;SDS011;32506;52.826;-1.192;2023-09-07T06:35:38;5.07;;;3.05;;
46755;SDS011;32506;52.826;-1.192;2023-09-07T06:38:04;5.70;;;3.60;;
46755;SDS011;32506;52.826;-1.192;2023-09-07T06:40:29;6.18;;;3.00;;
46755;SDS011;32506;52.826;-1.192;2023-09-07T06:42:55;4.80;;;3.42;;
46755;SDS011;32506;52.826;-1.192;2023-09-07T06:45:22;5.80;;;3.40;;
46755;SDS011;32506;52.826;-1.192;2023-09-07T06:47:49;6.13;;;3.78;;
46755;SDS011;32506;52.826;-1.192;2023-09-07T06:50:15;5.65;;;3.80;;
46755;SDS011;32506;52.826;-1.192;2023-09-07T06:52:41;6.25;;;3.55;;
46755;SDS011;32506;52.826;-1.192;2023-09-07T06:55:06;8.15;;;3.80;;
46755;SDS011;32506;52.826;-1.192;2023-09-07T06:57:32;6.45;;;4.10;;
46755;SDS011;32506;52.826;-1.192;2023-09-07T06:59:59;5.43;;;3.30;;
46755;SDS011;32506;52.826;-1.192;2023-09-07T07:02:24;6.50;;;3.90;;
46755;SDS011;32506;52.826;-1.192;2023-09-07T07:04:50;7.82;;;4.03;;
46755;SDS011;32506;52.826;-1.192;2023-09-07T07:07:16;5.72;;;3.13;;
46755;SDS011;32506;52.826;-1.192;2023-09-07T07:09:42;3.67;;;2.72;;
46755;SDS011;32506;52.826;-1.192;2023-09-07T07:12:07;5.55;;;3.40;;
46755;SDS011;32506;52.826;-1.192;2023-09-07T07:14:33;5.32;;;3.45;;
46755;SDS011;32506;52.826;-1.192;2023-09-07T07:16:58;4.78;;;3.40;;
46755;SDS011;32506;52.826;-1.192;2023-09-07T07:19:24;5.13;;;3.53;;
46755;SDS011;32506;52.826;-1.192;2023-09-07T07:21:50;4.88;;;3.30;;
46755;SDS011;32506;52.826;-1.192;2023-09-07T07:24:15;6.63;;;3.10;;
46755;SDS011;32506;52.826;-1.192;2023-09-07T07:26:42;4.68;;;2.90;;
46755;SDS011;32506;52.826;-1.192;2023-09-07T07:29:08;4.28;;;3.00;;
46755;SDS011;32506;52.826;-1.192;2023-09-07T07:31:34;5.18;;;3.20;;
46755;SDS011;32506;52.826;-1.192;2023-09-07T07:33:59;5.90;;;3.45;;
46755;SDS011;32506;52.826;-1.192;2023-09-07T07:36:25;7.65;;;3.20;;
46755;SDS011;32506;52.826;-1.192;2023-09-07T07:38:50;4.60;;;3.15;;
46755;SDS011;32506;52.826;-1.192;2023-09-07T07:41:16;5.05;;;3.35;;
46755;SDS011;32506;52.826;-1.192;2023-09-07T07:43:41;4.57;;;2.92;;
46755;SDS011;32506;52.826;-1.192;2023-09-07T07:46:07;6.00;;;3.28;;
46755;SDS011;32506;52.826;-1.192;2023-09-07T07:48:33;4.78;;;3.10;;
46755;SDS011;32506;52.826;-1.192;2023-09-07T07:51:02;4.20;;;3.00;;
46755;SDS011;32506;52.826;-1.192;2023-09-07T07:53:29;4.72;;;3.05;;
46755;SDS011;32506;52.826;-1.192;2023-09-07T07:55:56;4.07;;;2.97;;
46755;SDS011;32506;52.826;-1.192;2023-09-07T07:58:22;5.30;;;3.47;;
46755;SDS011;32506;52.826;-1.192;2023-09-07T08:00:48;4.05;;;3.08;;
46755;SDS011;32506;52.826;-1.192;2023-09-07T08:03:14;4.70;;;3.20;;
46755;SDS011;32506;52.826;-1.192;2023-09-07T08:05:40;4.07;;;2.65;;
46755;SDS011;32506;52.826;-1.192;2023-09-07T08:08:06;5.22;;;3.08;;
46755;SDS011;32506;52.826;-1.192;2023-09-07T08:10:38;3.55;;;2.55;;
46755;SDS011;32506;52.826;-1.192;2023-09-07T08:13:05;4.68;;;2.97;;
46755;SDS011;32506;52.826;-1.192;2023-09-07T08:15:34;7.82;;;3.10;;
46755;SDS011;32506;52.826;-1.192;2023-09-07T08:17:59;4.68;;;2.42;;
46755;SDS011;32506;52.826;-1.192;2023-09-07T08:20:25;4.50;;;2.88;;
46755;SDS011;32506;52.826;-1.192;2023-09-07T08:22:51;3.83;;;2.40;;
46755;SDS011;32506;52.826;-1.192;2023-09-07T08:25:20;5.45;;;2.67;;
46755;SDS011;32506;52.826;-1.192;2023-09-07T08:27:46;4.75;;;2.72;;
46755;SDS011;32506;52.826;-1.192;2023-09-07T08:30:13;6.40;;;2.55;;
46755;SDS011;32506;52.826;-1.192;2023-09-07T08:32:41;6.97;;;2.95;;
46755;SDS011;32506;52.826;-1.192;2023-09-07T08:35:08;3.42;;;2.10;;
46755;SDS011;32506;52.826;-1.192;2023-09-07T08:37:34;4.93;;;2.42;;
46755;SDS011;32506;52.826;-1.192;2023-09-07T08:40:00;3.88;;;2.47;;
46755;SDS011;32506;52.826;-1.192;2023-09-07T08:42:25;4.40;;;2.50;;
46755;SDS011;32506;52.826;-1.192;2023-09-07T08:44:51;3.88;;;2.70;;
46755;SDS011;32506;52.826;-1.192;2023-09-07T08:47:23;3.38;;;2.45;;
46755;SDS011;32506;52.826;-1.192;2023-09-07T08:49:49;4.50;;;2.58;;
46755;SDS011;32506;52.826;-1.192;2023-09-07T08:52:15;4.15;;;2.30;;
46755;SDS011;32506;52.826;-1.192;2023-09-07T08:54:42;4.90;;;2.40;;
46755;SDS011;32506;52.826;-1.192;2023-09-07T08:57:09;4.22;;;2.35;;
46755;SDS011;32506;52.826;-1.192;2023-09-07T08:59:36;7.85;;;2.70;;
46755;SDS011;32506;52.826;-1.192;2023-09-07T09:02:01;3.72;;;2.15;;
46755;SDS011;32506;52.826;-1.192;2023-09-07T09:04:29;4.68;;;2.60;;
46755;SDS011;32506;52.826;-1.192;2023-09-07T09:06:55;4.10;;;2.20;;
46755;SDS011;32506;52.826;-1.192;2023-09-07T09:09:24;6.75;;;3.42;;
46755;SDS011;32506;52.826;-1.192;2023-09-07T09:11:50;3.35;;;2.28;;
46755;SDS011;32506;52.826;-1.192;2023-09-07T09:14:16;5.28;;;2.60;;
46755;SDS011;32506;52.826;-1.192;2023-09-07T09:16:48;5.40;;;2.53;;
46755;SDS011;32506;52.826;-1.192;2023-09-07T09:19:14;3.92;;;2.50;;
46755;SDS011;32506;52.826;-1.192;2023-09-07T09:21:40;5.47;;;2.50;;
46755;SDS011;32506;52.826;-1.192;2023-09-07T09:24:08;4.38;;;2.70;;
46755;SDS011;32506;52.826;-1.192;2023-09-07T09:26:36;4.60;;;2.25;;
46755;SDS011;32506;52.826;-1.192;2023-09-07T09:29:02;5.15;;;2.42;;
46755;SDS011;32506;52.826;-1.192;2023-09-07T09:31:29;3.70;;;2.65;;
46755;SDS011;32506;52.826;-1.192;2023-09-07T09:33:55;4.95;;;2.53;;
46755;SDS011;32506;52.826;-1.192;2023-09-07T09:36:21;4.53;;;2.58;;
46755;SDS011;32506;52.826;-1.192;2023-09-07T09:38:50;4.63;;;2.40;;
46755;SDS011;32506;52.826;-1.192;2023-09-07T09:41:18;3.63;;;2.30;;
46755;SDS011;32506;52.826;-1.192;2023-09-07T09:43:45;4.45;;;2.70;;
46755;SDS011;32506;52.826;-1.192;2023-09-07T09:46:11;4.32;;;2.60;;
46755;SDS011;32506;52.826;-1.192;2023-09-07T09:48:38;3.33;;;2.35;;
46755;SDS011;32506;52.826;-1.192;2023-09-07T09:51:05;5.40;;;2.30;;
46755;SDS011;32506;52.826;-1.192;2023-09-07T09:53:32;4.07;;;2.65;;
46755;SDS011;32506;52.826;-1.192;2023-09-07T09:55:58;4.13;;;2.40;;
46755;SDS011;32506;52.826;-1.192;2023-09-07T09:58:23;3.67;;;2.22;;
46755;SDS011;32506;52.826;-1.192;2023-09-07T10:00:58;5.13;;;2.67;;
46755;SDS011;32506;52.826;-1.192;2023-09-07T10:03:27;4.80;;;2.47;;
46755;SDS011;32506;52.826;-1.192;2023-09-07T10:08:32;2.92;;;2.30;;
46755;SDS011;32506;52.826;-1.192;2023-09-07T10:10:57;6.15;;;2.80;;
46755;SDS011;32506;52.826;-1.192;2023-09-07T10:13:30;4.90;;;2.30;;
46755;SDS011;32506;52.826;-1.192;2023-09-07T10:16:00;5.13;;;2.70;;
46755;SDS011;32506;52.826;-1.192;2023-09-07T10:18:32;3.58;;;2.30;;
46755;SDS011;32506;52.826;-1.192;2023-09-07T10:21:02;3.90;;;2.83;;
46755;SDS011;32506;52.826;-1.192;2023-09-07T10:23:35;3.42;;;2.67;;
46755;SDS011;32506;52.826;-1.192;2023-09-07T10:26:02;3.50;;;2.13;;
46755;SDS011;32506;52.826;-1.192;2023-09-07T10:28:29;3.40;;;2.38;;
46755;SDS011;32506;52.826;-1.192;2023-09-07T10:31:02;3.70;;;2.63;;
46755;SDS011;32506;52.826;-1.192;2023-09-07T10:33:32;3.58;;;2.22;;
46755;SDS011;32506;52.826;-1.192;2023-09-07T10:36:00;5.00;;;2.88;;
46755;SDS011;32506;52.826;-1.192;2023-09-07T10:38:26;3.55;;;2.53;;
46755;SDS011;32506;52.826;-1.192;2023-09-07T10:40:56;3.35;;;2.33;;
46755;SDS011;32506;52.826;-1.192;2023-09-07T10:43:26;6.57;;;2.97;;
46755;SDS011;32506;52.826;-1.192;2023-09-07T10:45:55;3.63;;;2.10;;
46755;SDS011;32506;52.826;-1.192;2023-09-07T10:48:25;3.78;;;2.05;;
46755;SDS011;32506;52.826;-1.192;2023-09-07T10:50:51;4.40;;;2.20;;
46755;SDS011;32506;52.826;-1.192;2023-09-07T10:53:27;5.85;;;2.25;;
46755;SDS011;32506;52.826;-1.192;2023-09-07T10:55:54;4.47;;;2.03;;
46755;SDS011;32506;52.826;-1.192;2023-09-07T10:58:27;6.45;;;2.53;;
46755;SDS011;32506;52.826;-1.192;2023-09-07T11:00:55;5.30;;;2.50;;
46755;SDS011;32506;52.826;-1.192;2023-09-07T11:03:21;3.50;;;2.38;;
46755;SDS011;32506;52.826;-1.192;2023-09-07T11:05:47;4.40;;;1.98;;
46755;SDS011;32506;52.826;-1.192;2023-09-07T11:08:14;3.92;;;1.90;;
46755;SDS011;32506;52.826;-1.192;2023-09-07T11:10:39;3.65;;;2.22;;
46755;SDS011;32506;52.826;-1.192;2023-09-07T11:13:05;3.17;;;1.95;;
46755;SDS011;32506;52.826;-1.192;2023-09-07T11:15:31;4.80;;;2.45;;
46755;SDS011;32506;52.826;-1.192;2023-09-07T11:18:03;4.63;;;2.38;;
46755;SDS011;32506;52.826;-1.192;2023-09-07T11:20:32;2.97;;;1.80;;
46755;SDS011;32506;52.826;-1.192;2023-09-07T11:22:58;4.50;;;2.10;;
46755;SDS011;32506;52.826;-1.192;2023-09-07T11:25:25;5.43;;;2.28;;
46755;SDS011;32506;52.826;-1.192;2023-09-07T11:27:51;3.42;;;1.90;;
46755;SDS011;32506;52.826;-1.192;2023-09-07T11:30:20;3.55;;;2.33;;
46755;SDS011;32506;52.826;-1.192;2023-09-07T11:32:46;4.18;;;2.03;;
46755;SDS011;32506;52.826;-1.192;2023-09-07T11:35:11;3.38;;;2.40;;
46755;SDS011;32506;52.826;-1.192;2023-09-07T11:37:37;4.70;;;2.08;;
46755;SDS011;32506;52.826;-1.192;2023-09-07T11:40:03;2.90;;;2.13;;
46755;SDS011;32506;52.826;-1.192;2023-09-07T11:42:36;5.65;;;2.20;;
46755;SDS011;32506;52.826;-1.192;2023-09-07T11:45:01;3.05;;;2.10;;
46755;SDS011;32506;52.826;-1.192;2023-09-07T11:47:27;3.25;;;2.00;;
46755;SDS011;32506;52.826;-1.192;2023-09-07T11:49:53;2.70;;;2.13;;
46755;SDS011;32506;52.826;-1.192;2023-09-07T11:52:18;5.13;;;2.35;;
46755;SDS011;32506;52.826;-1.192;2023-09-07T11:54:44;6.18;;;1.98;;
46755;SDS011;32506;52.826;-1.192;2023-09-07T11:57:09;3.08;;;1.90;;
46755;SDS011;32506;52.826;-1.192;2023-09-07T11:59:35;3.15;;;1.98;;
46755;SDS011;32506;52.826;-1.192;2023-09-07T12:02:00;3.25;;;1.70;;
46755;SDS011;32506;52.826;-1.192;2023-09-07T12:04:25;3.28;;;1.85;;
46755;SDS011;32506;52.826;-1.192;2023-09-07T12:06:51;3.63;;;2.28;;
46755;SDS011;32506;52.826;-1.192;2023-09-07T12:09:16;4.22;;;1.77;;
46755;SDS011;32506;52.826;-1.192;2023-09-07T12:11:42;3.80;;;2.08;;
46755;SDS011;32506;52.826;-1.192;2023-09-07T12:14:08;3.63;;;2.00;;
46755;SDS011;32506;52.826;-1.192;2023-09-07T12:16:34;2.50;;;1.90;;
46755;SDS011;32506;52.826;-1.192;2023-09-07T12:19:00;4.10;;;1.95;;
46755;SDS011;32506;52.826;-1.192;2023-09-07T12:21:25;3.28;;;1.75;;
46755;SDS011;32506;52.826;-1.192;2023-09-07T12:23:50;3.33;;;2.10;;
46755;SDS011;32506;52.826;-1.192;2023-09-07T12:26:16;2.70;;;1.70;;
46755;SDS011;32506;52.826;-1.192;2023-09-07T12:28:46;2.63;;;2.00;;
46755;SDS011;32506;52.826;-1.192;2023-09-07T12:31:12;4.45;;;2.08;;
46755;SDS011;32506;52.826;-1.192;2023-09-07T12:33:37;3.97;;;1.92;;
46755;SDS011;32506;52.826;-1.192;2023-09-07T12:36:03;3.92;;;2.00;;
46755;SDS011;32506;52.826;-1.192;2023-09-07T12:38:30;3.15;;;1.88;;
46755;SDS011;32506;52.826;-1.192;2023-09-07T12:40:55;3.22;;;2.33;;
46755;SDS011;32506;52.826;-1.192;2023-09-07T12:43:21;2.95;;;1.70;;
46755;SDS011;32506;52.826;-1.192;2023-09-07T12:45:46;3.20;;;1.90;;
46755;SDS011;32506;52.826;-1.192;2023-09-07T12:48:12;3.40;;;2.05;;
46755;SDS011;32506;52.826;-1.192;2023-09-07T12:50:37;4.22;;;2.10;;
46755;SDS011;32506;52.826;-1.192;2023-09-07T12:53:05;3.65;;;2.03;;
46755;SDS011;32506;52.826;-1.192;2023-09-07T12:55:31;4.40;;;1.83;;
46755;SDS011;32506;52.826;-1.192;2023-09-07T12:57:56;2.83;;;2.25;;
46755;SDS011;32506;52.826;-1.192;2023-09-07T13:00:22;4.00;;;2.08;;
46755;SDS011;32506;52.826;-1.192;2023-09-07T13:02:47;3.72;;;2.25;;
46755;SDS011;32506;52.826;-1.192;2023-09-07T13:05:13;4.00;;;2.28;;
46755;SDS011;32506;52.826;-1.192;2023-09-07T13:07:38;3.17;;;1.90;;
46755;SDS011;32506;52.826;-1.192;2023-09-07T13:10:05;3.10;;;1.92;;
46755;SDS011;32506;52.826;-1.192;2023-09-07T13:12:31;3.22;;;2.00;;
46755;SDS011;32506;52.826;-1.192;2023-09-07T13:14:57;3.92;;;2.28;;
46755;SDS011;32506;52.826;-1.192;2023-09-07T13:17:23;3.65;;;2.40;;
46755;SDS011;32506;52.826;-1.192;2023-09-07T13:19:48;3.75;;;2.53;;
46755;SDS011;32506;52.826;-1.192;2023-09-07T13:22:14;3.88;;;2.20;;
46755;SDS011;32506;52.826;-1.192;2023-09-07T13:24:39;3.58;;;2.28;;
46755;SDS011;32506;52.826;-1.192;2023-09-07T13:27:05;4.07;;;2.25;;
46755;SDS011;32506;52.826;-1.192;2023-09-07T13:29:31;3.83;;;2.60;;
46755;SDS011;32506;52.826;-1.192;2023-09-07T13:31:57;4.53;;;2.00;;
46755;SDS011;32506;52.826;-1.192;2023-09-07T13:34:24;3.40;;;2.17;;
46755;SDS011;32506;52.826;-1.192;2023-09-07T13:36:50;3.22;;;2.10;;
46755;SDS011;32506;52.826;-1.192;2023-09-07T13:39:15;3.35;;;2.20;;
46755;SDS011;32506;52.826;-1.192;2023-09-07T13:41:41;2.67;;;1.92;;
46755;SDS011;32506;52.826;-1.192;2023-09-07T13:44:06;3.15;;;2.00;;
46755;SDS011;32506;52.826;-1.192;2023-09-07T13:46:33;2.65;;;2.28;;
46755;SDS011;32506;52.826;-1.192;2023-09-07T13:48:58;2.72;;;2.10;;
46755;SDS011;32506;52.826;-1.192;2023-09-07T13:51:24;4.05;;;1.95;;
46755;SDS011;32506;52.826;-1.192;2023-09-07T13:53:50;3.50;;;2.30;;
46755;SDS011;32506;52.826;-1.192;2023-09-07T13:56:16;2.53;;;2.00;;
46755;SDS011;32506;52.826;-1.192;2023-09-07T13:58:43;3.13;;;2.22;;
46755;SDS011;32506;52.826;-1.192;2023-09-07T14:01:08;3.40;;;2.22;;
46755;SDS011;32506;52.826;-1.192;2023-09-07T14:03:34;4.03;;;2.60;;
46755;SDS011;32506;52.826;-1.192;2023-09-07T14:05:59;4.15;;;2.10;;
46755;SDS011;32506;52.826;-1.192;2023-09-07T14:08:25;4.30;;;2.33;;
46755;SDS011;32506;52.826;-1.192;2023-09-07T14:10:51;5.40;;;2.00;;
46755;SDS011;32506;52.826;-1.192;2023-09-07T14:13:17;3.60;;;2.10;;
46755;SDS011;32506;52.826;-1.192;2023-09-07T14:15:43;2.95;;;1.95;;
46755;SDS011;32506;52.826;-1.192;2023-09-07T14:18:09;4.63;;;2.42;;
46755;SDS011;32506;52.826;-1.192;2023-09-07T14:20:35;3.03;;;2.08;;
46755;SDS011;32506;52.826;-1.192;2023-09-07T14:23:00;2.92;;;2.05;;
46755;SDS011;32506;52.826;-1.192;2023-09-07T14:25:29;3.47;;;2.20;;
46755;SDS011;32506;52.826;-1.192;2023-09-07T14:27:55;3.43;;;2.60;;
46755;SDS011;32506;52.826;-1.192;2023-09-07T14:30:20;2.50;;;2.13;;